Loyds Bridge, Louisiana
Current Conditions -  °F | °C
As of 5:53 PM on Friday 28 Nov 2014 (Local Time) from KESF Reporting Station
Clear Clear  
Wind Chill: 54°   Ceiling: Unl
Heat Index: 54°   Visibility: 10mi
Dew Point: 41°   Wind: 3mph
Humidity: 62%   Direction: 200°SSW
Pressure: 30.22"   Gusts: NA
Location:  31.0364°N, 92.3015°W
Report Text: KESF 282353Z AUTO 20003KT 10SM CLR 12/05 A3022 RMK AO2 SLP233 T01220050 10172 20122 56008
Loading
Personal Weather Stations






























Interactive Weather Map New forecast layout! Learn more

10-Day Weather Forecast

Advertisements
Track Severe Weather on mobile